createdAt,value
2023-03-07T06:49:47.116Z,11.35
2023-03-07T06:52:51.836Z,11.85
2023-03-07T06:55:53.673Z,10.50
2023-03-07T06:58:55.644Z,11.27
2023-03-07T07:01:57.857Z,11.30
2023-03-07T07:05:01.364Z,10.48
2023-03-07T07:08:03.455Z,11.20
2023-03-07T07:11:05.650Z,10.73
2023-03-07T07:14:08.170Z,9.90
2023-03-07T07:17:10.967Z,10.52
2023-03-07T07:20:14.156Z,9.75
2023-03-07T07:23:16.528Z,10.40
2023-03-07T07:26:18.930Z,10.50
2023-03-07T07:29:22.779Z,9.85
2023-03-07T07:32:25.122Z,9.68
2023-03-07T07:35:28.071Z,9.95
2023-03-07T07:38:30.482Z,9.75
2023-03-07T07:41:33.364Z,9.63
2023-03-07T07:44:35.669Z,9.07
2023-03-07T07:47:38.268Z,9.10
2023-03-07T07:50:40.106Z,9.52
2023-03-07T07:53:42.835Z,9.68
2023-03-07T07:56:45.276Z,8.52
2023-03-07T07:59:47.837Z,8.60
2023-03-07T08:02:50.653Z,7.75
2023-03-07T08:05:54.828Z,8.23
2023-03-07T08:08:58.134Z,7.93
2023-03-07T08:12:00.757Z,7.55
2023-03-07T08:15:02.479Z,8.05
2023-03-07T08:18:04.300Z,8.23
2023-03-07T08:21:06.620Z,7.97
2023-03-07T08:24:08.502Z,9.70
2023-03-07T08:27:10.420Z,8.27
2023-03-07T08:30:13.298Z,8.93
2023-03-07T08:33:15.400Z,7.60
2023-03-07T08:36:17.324Z,9.18
2023-03-07T08:39:19.437Z,9.27
2023-03-07T08:42:21.325Z,8.93
2023-03-07T08:45:24.847Z,10.70
2023-03-07T08:48:27.553Z,8.20
2023-03-07T08:51:30.578Z,7.50
2023-03-07T08:54:32.638Z,7.30
2023-03-07T08:57:34.437Z,6.97
2023-03-07T09:00:38.514Z,7.15
2023-03-07T09:03:43.301Z,6.57
2023-03-07T09:06:50.964Z,6.93
2023-03-07T09:09:59.656Z,7.15
2023-03-07T09:13:02.329Z,7.03
2023-03-07T09:16:15.539Z,7.75
2023-03-07T09:19:23.797Z,7.53
2023-03-07T09:22:30.386Z,7.00
2023-03-07T09:25:39.060Z,7.82
2023-03-07T09:28:48.496Z,7.40
2023-03-07T09:31:51.795Z,6.13
2023-03-07T09:34:58.790Z,6.78
2023-03-07T09:38:03.649Z,7.10
2023-03-07T09:41:27.837Z,7.50
2023-03-07T09:44:42.807Z,6.93
2023-03-07T09:48:04.142Z,6.82
2023-03-07T09:51:41.011Z,7.15
2023-03-07T09:54:52.878Z,6.53
2023-03-07T09:57:58.932Z,6.40
2023-03-07T10:01:01.876Z,6.20
2023-03-07T10:04:07.290Z,6.47
2023-03-07T10:07:11.246Z,6.22
2023-03-07T10:10:20.736Z,7.07
2023-03-07T10:13:49.778Z,7.03
2023-03-07T10:17:07.898Z,6.63
2023-03-07T10:20:25.211Z,9.77
2023-03-07T10:23:42.178Z,9.93
2023-03-07T10:27:13.288Z,8.68
2023-03-07T10:30:18.645Z,7.50
2023-03-07T10:33:22.440Z,6.55
2023-03-07T10:36:48.920Z,6.07
2023-03-07T10:39:54.674Z,6.38
2023-03-07T10:43:00.400Z,6.72
2023-03-07T10:46:24.585Z,6.40
2023-03-07T10:49:41.876Z,6.03
2023-03-07T10:52:54.259Z,6.20
2023-03-07T10:56:25.028Z,6.30
2023-03-07T10:59:28.829Z,7.45
2023-03-07T11:02:37.821Z,6.68
2023-03-07T11:05:48.382Z,6.55
2023-03-07T11:08:53.889Z,5.90
2023-03-07T11:12:05.936Z,6.63
2023-03-07T11:15:24.350Z,7.45
2023-03-07T11:18:38.871Z,6.40
2023-03-07T11:21:41.281Z,6.57
2023-03-07T11:24:59.082Z,6.00
2023-03-07T11:28:01.487Z,6.43
2023-03-07T11:31:22.135Z,6.28
2023-03-07T11:34:34.454Z,6.95
2023-03-07T11:37:43.352Z,6.05
2023-03-07T11:41:14.657Z,6.97
2023-03-07T11:44:33.477Z,6.15
2023-03-07T11:48:17.372Z,6.80
2023-03-07T11:51:45.116Z,6.22
2023-03-07T11:55:01.330Z,6.13
2023-03-07T11:58:22.967Z,6.00
2023-03-07T12:01:57.129Z,5.65
2023-03-07T12:05:11.837Z,6.65
2023-03-07T12:08:29.022Z,7.33
2023-03-07T12:11:48.794Z,6.38
2023-03-07T12:15:17.778Z,6.00
2023-03-07T12:18:37.949Z,6.07
2023-03-07T12:22:13.636Z,6.32
2023-03-07T12:25:41.782Z,6.53
2023-03-07T12:28:47.542Z,5.18
2023-03-07T12:31:54.227Z,6.28
2023-03-07T12:35:20.496Z,4.97
2023-03-07T12:38:42.976Z,5.72
2023-03-07T12:41:59.717Z,5.05
2023-03-07T12:45:17.622Z,5.00
2023-03-07T12:48:28.939Z,4.50
2023-03-07T12:51:40.936Z,4.65
2023-03-07T12:54:52.683Z,4.75
2023-03-07T12:58:38.048Z,4.13
2023-03-07T13:01:50.288Z,4.10
2023-03-07T13:04:53.865Z,3.97
2023-03-07T13:08:13.645Z,4.22
2023-03-07T13:11:25.967Z,4.63
2023-03-07T13:14:45.617Z,4.00
2023-03-07T13:17:48.082Z,4.25
2023-03-07T13:21:11.625Z,4.55
2023-03-07T13:24:39.995Z,4.15
2023-03-07T13:27:42.669Z,4.22
2023-03-07T13:31:17.199Z,4.05
2023-03-07T13:34:47.091Z,4.60
2023-03-07T13:37:51.895Z,4.68
2023-03-07T13:41:00.783Z,4.88
2023-03-07T13:44:03.611Z,4.55
2023-03-07T13:47:44.321Z,5.13
2023-03-07T13:50:46.134Z,4.72
2023-03-07T13:54:11.030Z,4.72
2023-03-07T13:57:23.647Z,4.50
2023-03-07T14:00:32.269Z,4.60
2023-03-07T14:03:50.166Z,5.93
2023-03-07T14:07:00.940Z,4.95
2023-03-07T14:10:22.243Z,6.13
2023-03-07T14:14:09.561Z,5.03
2023-03-07T14:20:53.584Z,5.55
2023-03-07T14:24:11.030Z,5.75
2023-03-07T14:27:15.244Z,5.78
2023-03-07T14:30:18.144Z,5.43
2023-03-07T14:33:19.823Z,5.63
2023-03-07T14:36:23.064Z,6.43
2023-03-07T14:39:29.470Z,6.28
2023-03-07T14:42:52.685Z,5.85
2023-03-07T14:46:13.039Z,6.28
2023-03-07T14:49:32.501Z,6.55
2023-03-07T14:52:34.891Z,6.32
2023-03-07T14:55:39.738Z,6.63
2023-03-07T14:58:52.522Z,5.50
2023-03-07T15:01:54.622Z,6.18
2023-03-07T15:04:56.530Z,6.25
2023-03-07T15:07:58.579Z,6.82
2023-03-07T15:11:11.183Z,6.47
2023-03-07T15:14:31.471Z,6.75
2023-03-07T15:17:43.995Z,6.13
2023-03-07T15:20:46.324Z,6.43
2023-03-07T15:23:53.921Z,6.65
2023-03-07T15:26:56.356Z,6.43
2023-03-07T15:30:00.928Z,7.15
2023-03-07T15:33:13.069Z,6.80
2023-03-07T15:36:14.783Z,6.80
2023-03-07T15:39:27.988Z,6.43
2023-03-07T15:42:30.164Z,6.97
2023-03-07T15:45:40.878Z,6.90
2023-03-07T15:48:53.863Z,6.85
2023-03-07T15:51:58.850Z,6.68
2023-03-07T15:55:08.162Z,7.10
2023-03-07T15:58:14.963Z,6.25
2023-03-07T16:01:25.493Z,6.55
2023-03-07T16:04:37.226Z,7.10
2023-03-07T16:07:38.888Z,6.00
2023-03-07T16:11:05.126Z,6.05
2023-03-07T16:14:26.157Z,6.68
2023-03-07T16:17:38.444Z,6.43
2023-03-07T16:20:40.274Z,6.88
2023-03-07T16:23:42.960Z,6.78
2023-03-07T16:26:46.649Z,6.85
2023-03-07T16:29:53.731Z,6.82
2023-03-07T16:32:55.749Z,6.25
2023-03-07T16:35:57.497Z,5.95
2023-03-07T16:38:59.186Z,6.43
2023-03-07T16:42:00.993Z,6.82
2023-03-07T16:45:07.538Z,6.55
2023-03-07T16:48:12.791Z,5.93
2023-03-07T16:54:18.628Z,6.75
2023-03-07T16:57:21.364Z,6.00
